Mauterndorf, Austria
Current Conditions -  °F | °C
As of 1:50 AM on Sunday 23 Nov 2014 (Local Time) from LOWK Reporting Station
Broken Clouds Broken Clouds  
Wind Chill: 36°   Ceiling: 900
Heat Index: 36°   Visibility: 6mi
Dew Point: 36°   Wind: 2mph
Humidity: 100%   Direction: 320°NW
Pressure: 30.33"   Gusts: NA
Location:  47.13°N, 13.68°E
Report Text: LOWK 230050Z AUTO 32002KT 9999 FEW007 BKN009 02/02 Q1027
Loading
Personal Weather Stations






























Interactive Weather Map New forecast layout! Learn more

10-Day Weather Forecast

Advertisements
Track Severe Weather on mobile